»·PEaware :: N360BG KBFI-KWYS

N360BG :: KBFI-KWYS

FLIGHT INFORMATION

Flight Status: Arrived
Operator: Privately registered:
United States
More flights under this callsign
Pilot: Brandon G. (13)
Aircraft: Unknown
(EPIC)
More flights by this aircraft type
Origin: KBFI Boeing Field/King Co Intl
United States
Destination: KWYS Yellowstone
United States
More flights between these airports :: More routes between these airports
Route: +CBAIN1 NORMY STEVS Q150 BAXGO DBS
File this flight plan on PilotEdge
Remarks:
Altitude:
(Current/Filed)
25,000ft
Speed:
(Current/Filed)
325kts
Departed: 13-Jan-18 09:01 PM
Arrived: 13-Jan-18 10:53 PM
Distance/Time
Traveled:
495nm/1:52
Distance/Time
To Go:
Arrived

Flight Plot

Page will automatically refresh every two minutes.

Flight plan parsing failed; only flown route is shown


Map Options




Map Legend


Flown Route
Filed Route
Departure Airport
Arrival Airport
Navaid (VOR, NDB)
Fix

Horizontal Profiles

Position Reports

Time Latitude Longitude Heading Altitude Ground
Speed
13-Jan-18 20:05 47.544951 -122.312733 142 23ft 0kts
13-Jan-18 20:06 47.544951 -122.312733 142 23ft 0kts
13-Jan-18 20:07 47.544951 -122.312733 142 23ft 0kts
13-Jan-18 20:08 47.544951 -122.312733 142 23ft 0kts
13-Jan-18 20:09 47.544951 -122.312733 142 23ft 0kts
13-Jan-18 20:10 47.544951 -122.312733 142 23ft 0kts
13-Jan-18 20:11 47.544951 -122.312733 142 23ft 0kts
13-Jan-18 20:12 47.544951 -122.312733 142 23ft 0kts
13-Jan-18 20:13 47.544951 -122.312733 142 23ft 0kts
13-Jan-18 20:14 47.544951 -122.312733 142 23ft 0kts
13-Jan-18 20:15 47.544951 -122.312733 142 23ft 0kts
13-Jan-18 20:16 47.544951 -122.312733 142 23ft 0kts
13-Jan-18 20:17 47.544951 -122.312733 142 23ft 0kts
13-Jan-18 20:18 47.544951 -122.312733 142 23ft 0kts
13-Jan-18 20:19 47.544951 -122.312733 142 23ft 0kts
13-Jan-18 20:20 47.544951 -122.312733 142 23ft 0kts
13-Jan-18 20:21 47.544951 -122.312733 142 23ft 0kts
13-Jan-18 20:22 47.544951 -122.312733 142 23ft 0kts
13-Jan-18 20:23 47.544951 -122.312733 142 23ft 0kts
13-Jan-18 20:24 47.544951 -122.312733 142 23ft 0kts
13-Jan-18 20:25 47.544951 -122.312733 142 23ft 0kts
13-Jan-18 20:26 47.544951 -122.312733 142 23ft 0kts
13-Jan-18 20:27 47.544951 -122.312733 142 23ft 0kts
13-Jan-18 20:28 47.544951 -122.312733 142 23ft 0kts
13-Jan-18 20:29 47.544951 -122.312733 142 23ft 0kts
13-Jan-18 20:30 47.544951 -122.312733 142 23ft 0kts
13-Jan-18 20:31 47.544951 -122.312733 142 23ft 0kts
13-Jan-18 20:32 47.544951 -122.312733 142 23ft 0kts
13-Jan-18 20:33 47.544951 -122.312733 142 23ft 0kts
13-Jan-18 20:34 47.544951 -122.312733 142 23ft 0kts
13-Jan-18 20:35 47.544951 -122.312733 142 23ft 0kts
13-Jan-18 20:36 47.544951 -122.312733 142 23ft 0kts
13-Jan-18 20:37 47.544951 -122.312733 142 23ft 0kts
13-Jan-18 20:38 47.544951 -122.312733 142 23ft 0kts
13-Jan-18 20:39 47.544951 -122.312733 142 23ft 0kts
13-Jan-18 20:40 47.544951 -122.312733 142 23ft 0kts
13-Jan-18 20:41 47.544951 -122.312733 142 23ft 0kts
13-Jan-18 20:42 47.544951 -122.312733 142 23ft 0kts
13-Jan-18 20:43 47.544951 -122.312733 142 23ft 0kts
13-Jan-18 20:44 47.544951 -122.312733 142 23ft 0kts
13-Jan-18 20:45 47.544951 -122.312733 142 23ft 0kts
13-Jan-18 20:46 47.544951 -122.312733 142 23ft 0kts
13-Jan-18 20:47 47.544951 -122.312733 142 23ft 0kts
13-Jan-18 20:48 47.544951 -122.312733 142 23ft 0kts
13-Jan-18 20:49 47.542453 -122.310309 142 21ft 0kts
13-Jan-18 20:50 47.542312 -122.310151 143 21ft 0kts
13-Jan-18 20:51 47.542312 -122.310151 143 21ft 0kts
13-Jan-18 20:52 47.542312 -122.310151 143 21ft 0kts
13-Jan-18 20:53 47.542312 -122.310151 143 21ft 0kts
13-Jan-18 20:54 47.542290 -122.310127 143 21ft 0kts
13-Jan-18 20:55 47.540459 -122.308673 141 20ft 18kts
13-Jan-18 20:56 47.536663 -122.305435 149 19ft 22kts
13-Jan-18 20:57 47.531951 -122.301119 149 18ft 17kts
13-Jan-18 20:58 47.527080 -122.298403 156 17ft 12kts
13-Jan-18 20:59 47.522120 -122.294183 149 19ft 24kts
13-Jan-18 21:00 47.520103 -122.292463 150 21ft 0kts
13-Jan-18 21:01 47.520031 -122.292402 150 21ft 0kts
13-Jan-18 21:02 47.520031 -122.292402 150 21ft 0kts
13-Jan-18 21:03 47.520031 -122.292402 150 21ft 0kts
13-Jan-18 21:04 47.519823 -122.292233 155 21ft 0kts
13-Jan-18 21:05 47.519092 -122.292255 220 20ft 16kts
13-Jan-18 21:06 47.519478 -122.293585 331 19ft 0kts
13-Jan-18 21:07 47.524598 -122.298000 324 152ft 102kts
13-Jan-18 21:08 47.558516 -122.327414 327 1243ft 190kts
13-Jan-18 21:09 47.598954 -122.371431 311 2416ft 162kts
13-Jan-18 21:10 47.629735 -122.416868 347 5391ft 165kts
13-Jan-18 21:11 47.642017 -122.366127 120 8846ft 187kts
13-Jan-18 21:12 47.617868 -122.298247 118 11848ft 197kts
13-Jan-18 21:13 47.593835 -122.225637 117 14432ft 207kts
13-Jan-18 21:14 47.569073 -122.149366 117 16695ft 215kts
13-Jan-18 21:15 47.544819 -122.069015 112 18636ft 223kts
13-Jan-18 21:16 47.525462 -121.981562 105 20529ft 236kts
13-Jan-18 21:17 47.498102 -121.896606 120 22963ft 240kts
13-Jan-18 21:18 47.466385 -121.814946 121 24881ft 249kts
13-Jan-18 21:19 47.431135 -121.718665 105 25373ft 300kts
13-Jan-18 21:20 47.411216 -121.595232 102 25359ft 327kts
13-Jan-18 21:21 47.391725 -121.465604 101 25358ft 336kts
13-Jan-18 21:22 47.372467 -121.337476 102 25398ft 338kts
13-Jan-18 21:23 47.352386 -121.204903 102 25462ft 338kts
13-Jan-18 21:24 47.332242 -121.073169 101 25475ft 339kts
13-Jan-18 21:25 47.311744 -120.940049 100 25476ft 341kts
13-Jan-18 21:26 47.291046 -120.806527 100 25476ft 342kts
13-Jan-18 21:27 47.270117 -120.672805 100 25480ft 342kts
13-Jan-18 21:28 47.248955 -120.538921 101 25491ft 342kts
13-Jan-18 21:29 47.227112 -120.404926 101 25502ft 342kts
13-Jan-18 21:30 47.205637 -120.274436 102 25525ft 341kts
13-Jan-18 21:31 47.183351 -120.140115 102 25536ft 342kts
13-Jan-18 21:32 47.154751 -120.009417 114 25537ft 343kts
13-Jan-18 21:33 47.114984 -119.889193 115 25526ft 344kts
13-Jan-18 21:34 47.073690 -119.766931 115 25508ft 344kts
13-Jan-18 21:35 47.032030 -119.644333 115 25505ft 344kts
13-Jan-18 21:36 46.989980 -119.521181 115 25505ft 343kts
13-Jan-18 21:37 46.947600 -119.397653 115 25505ft 342kts
13-Jan-18 21:38 46.906257 -119.277716 116 25503ft 341kts
13-Jan-18 21:39 46.865680 -119.160531 116 25502ft 339kts
13-Jan-18 21:40 46.823441 -119.039097 116 25507ft 338kts
13-Jan-18 21:41 46.781468 -118.919041 115 25512ft 340kts
13-Jan-18 21:42 46.738566 -118.796858 114 25517ft 343kts
13-Jan-18 21:43 46.695568 -118.674843 115 25500ft 346kts
13-Jan-18 21:44 46.652525 -118.553344 115 25478ft 347kts
13-Jan-18 21:45 46.609343 -118.432007 115 25476ft 348kts
13-Jan-18 21:46 46.568527 -118.317823 115 25474ft 348kts
13-Jan-18 21:47 46.525420 -118.197784 115 25474ft 347kts
13-Jan-18 21:48 46.482770 -118.079528 115 25475ft 347kts
13-Jan-18 21:49 46.439386 -117.959770 115 25475ft 347kts
13-Jan-18 21:50 46.395296 -117.838606 115 25476ft 348kts
13-Jan-18 21:51 46.351411 -117.718554 115 25480ft 348kts
13-Jan-18 21:52 46.306819 -117.597111 115 25486ft 348kts
13-Jan-18 21:53 46.261999 -117.475595 115 25487ft 348kts
13-Jan-18 21:54 46.217651 -117.355908 115 25488ft 349kts
13-Jan-18 21:55 46.174302 -117.239416 116 25485ft 348kts
13-Jan-18 21:56 46.130685 -117.117677 113 25486ft 348kts
13-Jan-18 21:57 46.090441 -116.996345 112 25486ft 349kts
13-Jan-18 21:58 46.049204 -116.872173 112 25488ft 350kts
13-Jan-18 21:59 46.007861 -116.748168 112 25490ft 351kts
13-Jan-18 22:00 45.966715 -116.625397 112 25495ft 351kts
13-Jan-18 22:01 45.925624 -116.503371 112 25499ft 352kts
13-Jan-18 22:02 45.886575 -116.387938 112 25493ft 351kts
13-Jan-18 22:03 45.849185 -116.277867 112 25489ft 351kts
13-Jan-18 22:04 45.807248 -116.154966 112 25490ft 350kts
13-Jan-18 22:05 45.765239 -116.032410 112 25491ft 350kts
13-Jan-18 22:06 45.723387 -115.910881 112 25492ft 350kts
13-Jan-18 22:07 45.682513 -115.792720 112 25492ft 351kts
13-Jan-18 22:08 45.640520 -115.671873 112 25493ft 351kts
13-Jan-18 22:09 45.598868 -115.552552 112 25494ft 351kts
13-Jan-18 22:10 45.556572 -115.431915 112 25494ft 351kts
13-Jan-18 22:11 45.515145 -115.314275 113 25492ft 351kts
13-Jan-18 22:12 45.472631 -115.194118 113 25493ft 351kts
13-Jan-18 22:13 45.429792 -115.073680 112 25518ft 353kts
13-Jan-18 22:14 45.386336 -114.951950 111 25537ft 356kts
13-Jan-18 22:15 45.342334 -114.829101 111 25539ft 358kts
13-Jan-18 22:16 45.298395 -114.707104 111 25551ft 359kts
13-Jan-18 22:17 45.254048 -114.584544 111 25550ft 359kts
13-Jan-18 22:18 45.211417 -114.467122 112 25552ft 357kts
13-Jan-18 22:19 45.168223 -114.348881 112 25553ft 355kts
13-Jan-18 22:20 45.125262 -114.231682 112 25551ft 354kts
13-Jan-18 22:21 45.081511 -114.112816 113 25551ft 354kts
13-Jan-18 22:22 45.033635 -113.996512 121 25552ft 355kts
13-Jan-18 22:23 44.978159 -113.887221 123 25552ft 353kts
13-Jan-18 22:24 44.921958 -113.778159 123 25553ft 351kts
13-Jan-18 22:25 44.870334 -113.678405 123 25546ft 350kts
13-Jan-18 22:26 44.814568 -113.571047 123 25547ft 350kts
13-Jan-18 22:27 44.758737 -113.463967 123 25548ft 350kts
13-Jan-18 22:28 44.702819 -113.357115 123 25548ft 350kts
13-Jan-18 22:29 44.650882 -113.258214 124 25543ft 350kts
13-Jan-18 22:30 44.594044 -113.150373 124 25503ft 351kts
13-Jan-18 22:31 44.536107 -113.040874 124 25462ft 351kts
13-Jan-18 22:32 44.478335 -112.932159 123 25457ft 353kts
13-Jan-18 22:33 44.421778 -112.826037 121 25384ft 359kts
13-Jan-18 22:34 44.360761 -112.711832 122 24408ft 378kts
13-Jan-18 22:35 44.297925 -112.594887 122 23433ft 382kts
13-Jan-18 22:36 44.234040 -112.476460 122 21961ft 391kts
13-Jan-18 22:37 44.169708 -112.357770 123 20404ft 382kts
13-Jan-18 22:38 44.114619 -112.255072 113 17748ft 322kts
13-Jan-18 22:39 44.122553 -112.166501 57 15275ft 270kts
13-Jan-18 22:40 44.165930 -112.073544 47 12703ft 227kts
13-Jan-18 22:41 44.198677 -112.011379 61 12013ft 175kts
13-Jan-18 22:42 44.209361 -111.938971 71 12030ft 200kts
13-Jan-18 22:43 44.220903 -111.861395 71 12029ft 209kts
13-Jan-18 22:44 44.230805 -111.795709 71 12028ft 206kts
13-Jan-18 22:45 44.244125 -111.706196 71 12028ft 201kts
13-Jan-18 22:46 44.255333 -111.630608 71 12029ft 199kts
13-Jan-18 22:47 44.265305 -111.565145 71 12035ft 239kts
13-Jan-18 22:48 44.291276 -111.475432 51 11734ft 272kts
13-Jan-18 22:49 44.338163 -111.378408 51 11017ft 266kts
13-Jan-18 22:50 44.370252 -111.319431 20 10984ft 229kts
13-Jan-18 22:51 44.425277 -111.298887 21 10989ft 213kts
13-Jan-18 22:52 44.471383 -111.267156 20 10987ft 188kts
13-Jan-18 22:53 44.515099 -111.237035 20 10238ft 183kts
13-Jan-18 22:54 44.554097 -111.210125 18 9401ft 138kts
13-Jan-18 22:55 44.585934 -111.188416 18 8698ft 136kts
13-Jan-18 22:56 44.618785 -111.166359 8 7946ft 130kts
13-Jan-18 22:57 44.649538 -111.144442 17 7250ft 118kts
13-Jan-18 22:58 44.679616 -111.123687 21 6669ft 104kts
13-Jan-18 22:59 44.691645 -111.114790 98 6634ft 8kts
13-Jan-18 23:00 44.689288 -111.115320 206 6638ft 18kts
13-Jan-18 23:01 44.688789 -111.114215 208 6639ft 0kts

Navigation Log

Ident Type
Flight plan parsing failed, navigation log unavailable